Time;durP1;ratioP1;P1;durP2;ratioP2;P2;SDS_P1;SDS_P2;PMS_P1;PMS_P2;Temp;Humidity;BMP_temperature;BMP_pressure;BME280_temperature;BME280_humidity;BME280_pressure;Samples;Min_cycle;Max_cycle;Signal;HPM_P1;HPM_P2
2022/03/31 00:00:47;;;;;;;38.30;20.70;;;7.50;99.90;;;;;;5028934;28;20119;-71
2022/03/31 00:03:15;;;;;;;40.65;21.02;;;7.60;99.90;;;;;;5028415;28;20022;-71
2022/03/31 00:05:41;;;;;;;36.95;21.15;;;7.60;99.90;;;;;;5026612;28;20025;-70
2022/03/31 00:08:13;;;;;;;36.05;20.08;;;7.60;99.90;;;;;;5030214;28;20037;-70
2022/03/31 00:10:48;;;;;;;32.65;18.35;;;7.60;99.90;;;;;;5028709;28;20560;-70
2022/03/31 00:13:17;;;;;;;40.15;20.48;;;7.70;99.90;;;;;;5023306;28;20105;-71
2022/03/31 00:15:43;;;;;;;38.88;20.42;;;7.60;99.90;;;;;;5033641;28;20033;-70
2022/03/31 00:18:10;;;;;;;37.72;21.58;;;7.70;99.90;;;;;;5033318;28;20040;-71
2022/03/31 00:20:36;;;;;;;38.85;21.35;;;7.70;99.90;;;;;;5033612;28;20032;-70
2022/03/31 00:23:02;;;;;;;38.60;21.25;;;7.60;99.90;;;;;;5032059;28;20037;-71
2022/03/31 00:25:28;;;;;;;39.08;20.40;;;7.60;99.90;;;;;;5033420;28;20371;-70
2022/03/31 00:27:56;;;;;;;43.35;21.70;;;7.50;99.90;;;;;;5033876;28;20032;-71
2022/03/31 00:30:23;;;;;;;36.67;20.25;;;7.50;99.90;;;;;;5027845;28;20032;-69
2022/03/31 00:32:49;;;;;;;38.33;20.52;;;7.50;99.90;;;;;;5025246;28;20529;-70
2022/03/31 00:35:14;;;;;;;38.65;21.10;;;7.50;99.90;;;;;;5025815;28;20026;-69
2022/03/31 00:37:42;;;;;;;40.67;20.67;;;7.40;99.90;;;;;;5028920;28;20029;-69
2022/03/31 00:40:09;;;;;;;38.15;20.45;;;7.40;99.90;;;;;;5029595;28;20025;-69
2022/03/31 00:42:53;;;;;;;40.13;20.73;;;7.40;99.90;;;;;;5025038;28;20021;-70
2022/03/31 00:45:24;;;;;;;39.20;19.45;;;7.40;99.90;;;;;;5026454;28;20029;-70
2022/03/31 00:47:51;;;;;;;39.85;20.85;;;7.50;99.90;;;;;;5029389;28;20121;-70
2022/03/31 00:50:17;;;;;;;33.75;19.67;;;7.50;99.90;;;;;;5026719;28;20492;-70
2022/03/31 00:52:43;;;;;;;39.17;21.38;;;7.50;99.90;;;;;;5027413;28;20148;-70
2022/03/31 00:55:11;;;;;;;42.33;22.17;;;7.40;99.90;;;;;;5023941;28;20398;-70
2022/03/31 00:57:38;;;;;;;41.15;21.50;;;7.40;99.90;;;;;;5025098;28;20483;-69
2022/03/31 01:00:08;;;;;;;39.75;20.83;;;7.40;99.90;;;;;;5025799;28;20021;-70
2022/03/31 01:02:36;;;;;;;39.75;20.73;;;7.40;99.90;;;;;;5023930;28;20132;-70
2022/03/31 01:05:03;;;;;;;39.55;21.35;;;7.40;99.90;;;;;;5029779;28;20105;-70
2022/03/31 01:07:29;;;;;;;38.83;20.42;;;7.40;99.90;;;;;;5029261;28;20155;-69
2022/03/31 01:09:57;;;;;;;40.38;22.13;;;7.40;99.90;;;;;;5026104;28;20033;-69
2022/03/31 01:12:23;;;;;;;40.90;21.00;;;7.40;99.90;;;;;;5026341;28;20033;-70
2022/03/31 01:15:16;;;;;;;44.47;22.65;;;7.40;99.90;;;;;;5028063;28;20842;-70
2022/03/31 01:17:44;;;;;;;40.55;22.48;;;7.40;99.90;;;;;;5020995;28;20041;-71
2022/03/31 01:20:12;;;;;;;40.95;20.33;;;7.40;99.90;;;;;;5029403;28;20033;-71
2022/03/31 01:22:38;;;;;;;42.50;22.10;;;7.40;99.90;;;;;;5027759;28;20501;-71
2022/03/31 01:25:06;;;;;;;43.28;22.35;;;7.40;99.90;;;;;;5024285;28;20029;-70
2022/03/31 01:27:36;;;;;;;45.42;22.45;;;7.40;99.90;;;;;;5027743;28;20188;-70
2022/03/31 01:30:06;;;;;;;47.28;24.23;;;7.40;99.90;;;;;;5027652;28;20029;-70
2022/03/31 01:32:32;;;;;;;43.92;23.23;;;7.40;99.90;;;;;;5024440;28;20146;-70
2022/03/31 01:34:57;;;;;;;45.67;22.88;;;7.40;99.90;;;;;;5022670;28;20489;-70
2022/03/31 01:37:23;;;;;;;46.90;24.52;;;7.40;99.90;;;;;;5024571;28;20029;-70
2022/03/31 01:39:49;;;;;;;45.55;23.98;;;7.40;99.90;;;;;;5026063;28;20021;-70
2022/03/31 01:42:15;;;;;;;46.97;24.40;;;7.40;99.90;;;;;;5024268;28;20179;-70
2022/03/31 01:44:41;;;;;;;45.88;24.23;;;7.30;99.90;;;;;;5025685;28;20108;-70
2022/03/31 01:47:08;;;;;;;46.58;25.00;;;7.30;99.90;;;;;;5025969;28;20038;-70
2022/03/31 01:49:37;;;;;;;48.88;23.25;;;7.20;99.90;;;;;;5026421;28;20036;-71
2022/03/31 01:52:03;;;;;;;43.22;23.55;;;7.20;99.90;;;;;;5029707;28;20080;-70
2022/03/31 01:54:30;;;;;;;48.58;25.13;;;7.20;99.90;;;;;;5030430;28;20056;-71
2022/03/31 01:56:55;;;;;;;44.33;23.45;;;7.20;99.90;;;;;;5025529;28;20079;-71
2022/03/31 01:59:21;;;;;;;50.33;25.13;;;7.20;99.90;;;;;;5028015;28;20033;-70
2022/03/31 02:01:48;;;;;;;48.20;24.50;;;7.20;99.90;;;;;;5027181;28;20051;-70
2022/03/31 02:04:15;;;;;;;49.55;25.08;;;7.20;99.90;;;;;;5027676;28;20029;-70
2022/03/31 02:06:41;;;;;;;49.65;25.60;;;7.20;99.90;;;;;;5022152;28;20426;-70
2022/03/31 02:09:07;;;;;;;45.03;23.13;;;7.20;99.90;;;;;;5024872;28;20029;-71
2022/03/31 02:11:33;;;;;;;50.25;24.67;;;7.20;99.90;;;;;;5020286;28;20025;-71
2022/03/31 02:13:58;;;;;;;47.55;24.15;;;7.20;99.90;;;;;;5027223;28;20018;-70
2022/03/31 02:16:24;;;;;;;48.65;25.63;;;7.20;99.90;;;;;;5026274;28;20060;-70
2022/03/31 02:18:50;;;;;;;51.92;26.38;;;7.20;99.90;;;;;;5026753;28;20093;-71
2022/03/31 02:21:16;;;;;;;49.10;24.58;;;7.20;99.90;;;;;;5024786;28;20099;-70
2022/03/31 02:23:42;;;;;;;45.13;23.95;;;7.20;99.90;;;;;;5025026;28;20032;-71
2022/03/31 02:26:08;;;;;;;44.08;23.25;;;7.20;99.90;;;;;;5028673;28;20025;-70
2022/03/31 02:28:33;;;;;;;51.83;25.48;;;7.20;99.90;;;;;;5030976;28;20120;-70
2022/03/31 02:30:59;;;;;;;47.70;25.33;;;7.30;99.90;;;;;;5030087;28;20033;-70
2022/03/31 02:33:24;;;;;;;47.83;24.05;;;7.30;99.90;;;;;;5029398;28;20034;-70
2022/03/31 02:35:50;;;;;;;43.08;24.58;;;7.30;99.90;;;;;;5031541;28;20021;-71
2022/03/31 02:38:16;;;;;;;48.53;24.55;;;7.30;99.90;;;;;;5026931;28;20678;-70
2022/03/31 02:40:42;;;;;;;45.90;24.77;;;7.30;99.90;;;;;;5026555;28;20029;-70
2022/03/31 02:43:10;;;;;;;47.88;24.13;;;7.20;99.90;;;;;;5027031;28;20041;-70
2022/03/31 02:45:36;;;;;;;47.33;26.48;;;7.30;99.90;;;;;;5023666;28;20073;-70
2022/03/31 02:48:02;;;;;;;43.22;23.15;;;7.30;99.90;;;;;;5028335;28;20068;-70
2022/03/31 02:50:28;;;;;;;48.45;24.30;;;7.30;99.90;;;;;;5027951;28;20478;-71
2022/03/31 02:55:38;;;;;;;46.95;24.25;;;7.40;99.90;;;;;;5023446;28;20525;-71
2022/03/31 02:58:04;;;;;;;47.30;24.92;;;7.30;99.90;;;;;;5024466;28;20025;-70
2022/03/31 03:00:32;;;;;;;47.85;24.75;;;7.30;99.90;;;;;;5023010;28;20033;-71
2022/03/31 03:02:59;;;;;;;52.92;25.67;;;7.30;99.90;;;;;;5024306;28;20021;-70
2022/03/31 03:05:24;;;;;;;48.10;24.80;;;7.30;99.90;;;;;;5027131;28;20029;-70
2022/03/31 03:07:50;;;;;;;52.35;25.55;;;7.30;99.90;;;;;;5027637;28;20079;-69
2022/03/31 03:10:16;;;;;;;45.60;24.52;;;7.20;99.90;;;;;;5025119;28;20074;-70
2022/03/31 03:12:42;;;;;;;55.90;24.98;;;7.20;99.90;;;;;;5021619;28;20044;-69
2022/03/31 03:15:10;;;;;;;51.55;25.95;;;7.20;99.90;;;;;;5025631;28;20041;-70
2022/03/31 03:17:39;;;;;;;52.03;25.70;;;7.20;99.90;;;;;;5017030;28;20032;-69
2022/03/31 03:20:06;;;;;;;53.08;25.75;;;7.20;99.90;;;;;;5025543;28;20523;-69
2022/03/31 03:22:32;;;;;;;48.97;24.45;;;7.10;99.90;;;;;;5020224;28;20036;-69
2022/03/31 03:24:58;;;;;;;48.85;23.55;;;7.00;99.90;;;;;;5023522;28;21378;-70
2022/03/31 03:27:25;;;;;;;45.17;22.73;;;7.00;99.90;;;;;;5024471;28;20163;-70
2022/03/31 03:29:51;;;;;;;47.97;22.58;;;7.00;99.90;;;;;;5025155;28;20029;-69
2022/03/31 03:32:17;;;;;;;39.88;21.95;;;7.00;99.90;;;;;;5027170;28;20028;-71
2022/03/31 03:34:43;;;;;;;40.55;22.27;;;6.90;99.90;;;;;;5024568;28;20037;-68
2022/03/31 03:37:09;;;;;;;42.05;21.60;;;6.90;99.90;;;;;;5028610;28;20030;-70
2022/03/31 03:39:36;;;;;;;33.67;19.83;;;6.90;99.90;;;;;;5024466;28;20075;-71
2022/03/31 03:42:02;;;;;;;43.97;22.08;;;6.90;99.90;;;;;;5029837;28;20033;-71
2022/03/31 03:44:28;;;;;;;41.00;21.27;;;6.80;99.90;;;;;;5031586;28;20035;-71
2022/03/31 03:46:53;;;;;;;45.15;21.13;;;6.80;99.90;;;;;;5025599;28;20395;-71
2022/03/31 03:49:19;;;;;;;40.65;21.13;;;6.80;99.90;;;;;;5027313;28;20083;-71
2022/03/31 03:51:45;;;;;;;40.22;21.40;;;6.80;99.90;;;;;;5026162;28;20044;-70
2022/03/31 03:54:11;;;;;;;42.50;22.85;;;6.80;99.90;;;;;;5029528;28;20478;-70
2022/03/31 03:56:38;;;;;;;40.67;22.25;;;6.80;99.90;;;;;;5025328;28;20104;-70
2022/03/31 03:59:04;;;;;;;42.10;21.98;;;6.80;99.90;;;;;;5029238;28;20026;-70
2022/03/31 04:01:30;;;;;;;41.38;21.52;;;6.80;99.90;;;;;;5032461;28;20033;-70
2022/03/31 04:03:57;;;;;;;46.25;21.98;;;6.70;99.90;;;;;;5030686;28;20501;-69
2022/03/31 04:06:23;;;;;;;43.03;21.52;;;6.70;99.90;;;;;;5032236;28;20021;-70
2022/03/31 04:08:49;;;;;;;46.97;23.77;;;6.70;99.90;;;;;;5030378;28;20029;-71
2022/03/31 04:11:14;;;;;;;41.08;22.15;;;6.70;99.90;;;;;;5022754;28;20037;-70
2022/03/31 04:13:40;;;;;;;45.42;22.20;;;6.60;99.90;;;;;;5027092;28;20482;-70
2022/03/31 04:16:06;;;;;;;39.92;21.73;;;6.60;99.90;;;;;;5028498;28;20026;-71
2022/03/31 04:18:32;;;;;;;44.13;21.95;;;6.60;99.90;;;;;;5031230;28;20334;-71
2022/03/31 04:21:01;;;;;;;39.20;21.52;;;6.60;99.90;;;;;;5033344;28;20057;-71
2022/03/31 04:23:26;;;;;;;40.78;22.23;;;6.60;99.90;;;;;;5030381;28;20133;-72
2022/03/31 04:25:52;;;;;;;41.97;22.65;;;6.60;99.90;;;;;;5033281;28;20038;-70
2022/03/31 04:28:18;;;;;;;43.83;23.02;;;6.60;99.90;;;;;;5023886;28;20148;-70
2022/03/31 04:30:43;;;;;;;46.75;22.90;;;6.60;99.90;;;;;;5025878;28;20034;-70
2022/03/31 04:33:09;;;;;;;48.08;23.20;;;6.60;99.90;;;;;;5029153;28;20025;-71
2022/03/31 04:35:36;;;;;;;40.22;20.88;;;6.50;99.90;;;;;;5031125;28;20087;-71
2022/03/31 04:38:05;;;;;;;44.15;22.42;;;6.50;99.90;;;;;;5027855;28;20036;-70
2022/03/31 04:40:32;;;;;;;45.55;23.20;;;6.50;99.90;;;;;;5027871;28;20022;-71
2022/03/31 04:42:57;;;;;;;41.72;20.85;;;6.50;99.90;;;;;;5026323;28;20532;-71
2022/03/31 04:45:23;;;;;;;42.10;22.27;;;6.50;99.90;;;;;;5027570;28;20108;-70
2022/03/31 04:47:49;;;;;;;41.42;22.63;;;6.50;99.90;;;;;;5023827;28;20030;-69
2022/03/31 04:50:15;;;;;;;45.55;23.88;;;6.50;99.90;;;;;;5021913;28;20040;-69
2022/03/31 04:52:42;;;;;;;40.13;22.17;;;6.50;99.90;;;;;;5020879;28;20033;-70
2022/03/31 04:55:08;;;;;;;45.50;22.08;;;6.50;99.90;;;;;;5025923;28;20034;-70
2022/03/31 04:57:34;;;;;;;44.72;23.05;;;6.50;99.90;;;;;;5023615;28;20119;-70
2022/03/31 05:00:01;;;;;;;38.85;21.52;;;6.50;99.90;;;;;;5030553;28;20101;-70
2022/03/31 05:02:26;;;;;;;40.00;20.60;;;6.50;99.90;;;;;;5027888;28;20032;-64
2022/03/31 05:04:52;;;;;;;40.88;20.80;;;6.50;99.90;;;;;;5025499;28;20041;-63
2022/03/31 05:07:18;;;;;;;41.70;21.08;;;6.50;99.90;;;;;;5023157;28;20515;-63
2022/03/31 05:09:45;;;;;;;39.80;20.35;;;6.50;99.90;;;;;;5022581;28;20038;-70
2022/03/31 05:12:12;;;;;;;43.10;21.73;;;6.50;99.90;;;;;;5025268;28;20096;-69
2022/03/31 05:14:39;;;;;;;41.50;21.15;;;6.50;99.90;;;;;;5029152;28;20056;-69
2022/03/31 05:17:05;;;;;;;42.03;21.05;;;6.60;99.90;;;;;;5027734;28;20029;-69
2022/03/31 05:19:31;;;;;;;36.20;20.08;;;6.50;99.90;;;;;;5022542;28;20091;-70
2022/03/31 05:21:57;;;;;;;41.08;21.65;;;6.50;99.90;;;;;;5022076;28;20030;-69
2022/03/31 05:24:23;;;;;;;39.97;21.42;;;6.50;99.90;;;;;;5023625;28;20433;-68
2022/03/31 05:26:52;;;;;;;38.83;21.10;;;6.50;99.90;;;;;;5026760;28;20027;-69
2022/03/31 05:29:18;;;;;;;42.85;22.70;;;6.50;99.90;;;;;;5023170;28;20042;-69
2022/03/31 05:31:45;;;;;;;41.45;22.52;;;6.50;99.90;;;;;;5023985;28;20021;-70
2022/03/31 05:34:11;;;;;;;47.15;24.52;;;6.40;99.90;;;;;;5021171;28;20033;-68
2022/03/31 05:36:37;;;;;;;42.92;22.67;;;6.40;99.90;;;;;;5023695;28;20482;-69
2022/03/31 05:39:03;;;;;;;49.22;25.05;;;6.40;99.90;;;;;;5025736;28;20053;-68
2022/03/31 05:41:29;;;;;;;38.38;22.42;;;6.40;99.90;;;;;;5024324;28;20021;-68
2022/03/31 05:43:55;;;;;;;42.67;22.10;;;6.40;99.90;;;;;;5025078;28;20175;-71
2022/03/31 05:46:22;;;;;;;45.05;21.85;;;6.40;99.90;;;;;;5021868;28;20026;-69
2022/03/31 05:48:48;;;;;;;43.40;21.77;;;6.30;99.90;;;;;;5023737;28;20034;-69
2022/03/31 05:51:15;;;;;;;47.30;22.75;;;6.40;99.90;;;;;;5021554;28;20136;-69
2022/03/31 05:53:41;;;;;;;38.85;21.30;;;6.40;99.90;;;;;;5021442;28;20033;-68
2022/03/31 05:56:07;;;;;;;45.78;22.40;;;6.30;99.90;;;;;;5024044;28;20033;-69
2022/03/31 05:58:36;;;;;;;59.88;21.60;;;6.30;99.90;;;;;;5022750;28;20552;-69
2022/03/31 06:01:04;;;;;;;42.92;21.35;;;6.30;99.90;;;;;;5024216;28;20033;-69
2022/03/31 06:03:30;;;;;;;41.60;20.65;;;6.30;99.90;;;;;;5021046;28;20029;-69
2022/03/31 06:05:56;;;;;;;41.22;21.33;;;6.30;99.90;;;;;;5022691;28;20021;-69
2022/03/31 06:08:21;;;;;;;42.05;21.85;;;6.40;99.90;;;;;;5024574;28;20041;-69
2022/03/31 06:10:48;;;;;;;40.83;20.73;;;6.40;99.90;;;;;;5019618;28;20026;-71
2022/03/31 06:13:14;;;;;;;42.92;22.70;;;6.40;99.90;;;;;;5020096;28;20056;-71
2022/03/31 06:15:40;;;;;;;39.22;22.02;;;6.40;99.90;;;;;;5022175;28;20065;-69
2022/03/31 06:18:09;;;;;;;47.40;21.85;;;6.40;99.90;;;;;;5024481;28;20167;-68
2022/03/31 06:20:35;;;;;;;52.38;25.35;;;6.30;99.90;;;;;;5017419;28;20025;-67
2022/03/31 06:23:02;;;;;;;42.53;21.67;;;6.30;99.90;;;;;;5020726;28;20051;-68
2022/03/31 06:25:28;;;;;;;40.72;21.92;;;6.30;99.90;;;;;;5019503;28;20033;-69
2022/03/31 06:27:54;;;;;;;44.00;23.13;;;6.30;99.90;;;;;;5021991;28;20033;-69
2022/03/31 06:30:20;;;;;;;47.42;23.83;;;6.30;99.90;;;;;;5020348;28;20103;-69
2022/03/31 06:32:46;;;;;;;45.58;22.38;;;6.30;99.90;;;;;;5020640;28;20038;-70
2022/03/31 06:35:14;;;;;;;43.92;24.55;;;6.30;99.90;;;;;;5019025;28;20389;-69
2022/03/31 06:37:44;;;;;;;42.30;22.67;;;6.30;99.90;;;;;;5020146;28;20363;-69
2022/03/31 06:40:12;;;;;;;47.67;24.85;;;6.30;99.90;;;;;;5019574;28;20057;-69
2022/03/31 06:42:39;;;;;;;54.58;25.33;;;6.30;99.90;;;;;;5020380;28;20029;-69
2022/03/31 06:45:12;;;;;;;48.72;24.50;;;6.30;99.90;;;;;;5016605;28;20104;-69
2022/03/31 06:47:41;;;;;;;50.50;25.77;;;6.20;99.90;;;;;;5019616;28;20307;-70
2022/03/31 06:50:08;;;;;;;50.88;26.45;;;6.30;99.90;;;;;;5025108;28;20072;-69
2022/03/31 06:52:33;;;;;;;52.80;25.25;;;6.20;99.90;;;;;;5023167;28;20030;-69
2022/03/31 06:54:59;;;;;;;58.38;25.75;;;6.30;99.90;;;;;;5024856;28;20056;-70
2022/03/31 06:57:25;;;;;;;45.72;24.08;;;6.30;99.90;;;;;;5021424;28;20117;-69
2022/03/31 06:59:50;;;;;;;52.83;24.90;;;6.30;99.90;;;;;;5021365;28;20120;-70
2022/03/31 07:02:16;;;;;;;49.92;24.75;;;6.30;99.90;;;;;;5018034;28;20034;-70
2022/03/31 07:04:42;;;;;;;46.88;23.92;;;6.20;99.90;;;;;;5022210;28;20041;-68
2022/03/31 07:07:08;;;;;;;51.20;24.77;;;6.20;99.90;;;;;;5020891;28;20022;-69
2022/03/31 07:09:33;;;;;;;46.90;23.63;;;6.20;99.90;;;;;;5022712;28;20029;-69
2022/03/31 07:11:59;;;;;;;54.67;25.17;;;6.20;99.90;;;;;;5021768;28;20025;-70
2022/03/31 07:14:25;;;;;;;45.55;23.38;;;6.20;99.90;;;;;;5039067;28;20021;-69
2022/03/31 07:16:51;;;;;;;50.40;23.77;;;6.30;99.90;;;;;;5019930;28;20033;-71
2022/03/31 07:19:17;;;;;;;57.35;26.75;;;6.30;99.90;;;;;;5021968;28;20109;-69
2022/03/31 07:21:43;;;;;;;54.10;27.02;;;6.30;99.90;;;;;;5018769;28;20581;-69
2022/03/31 07:24:09;;;;;;;51.53;25.00;;;6.20;99.90;;;;;;5021678;28;20029;-70
2022/03/31 07:26:35;;;;;;;57.95;25.95;;;6.20;99.90;;;;;;5021086;28;20048;-69
2022/03/31 07:29:01;;;;;;;51.28;26.20;;;6.30;99.90;;;;;;5024254;28;20025;-68
2022/03/31 07:31:28;;;;;;;62.25;26.95;;;6.20;99.90;;;;;;5022356;28;20029;-72
2022/03/31 07:33:56;;;;;;;45.92;23.35;;;6.20;99.90;;;;;;5024823;28;20017;-69
2022/03/31 07:36:21;;;;;;;51.53;25.00;;;6.20;99.90;;;;;;5023430;28;20033;-70
2022/03/31 07:38:47;;;;;;;52.92;25.58;;;6.20;99.90;;;;;;5024242;28;20645;-71
2022/03/31 07:41:15;;;;;;;43.42;22.20;;;6.20;99.90;;;;;;5025339;28;20378;-72
2022/03/31 07:43:40;;;;;;;45.00;22.92;;;6.20;99.90;;;;;;5021783;28;25295;-69
2022/03/31 07:46:06;;;;;;;42.63;22.15;;;6.30;99.90;;;;;;5025052;28;20076;-70
2022/03/31 07:48:32;;;;;;;49.78;24.33;;;6.20;99.90;;;;;;5023086;28;20036;-70
2022/03/31 07:50:59;;;;;;;49.35;23.85;;;6.20;99.90;;;;;;5022325;28;20033;-70
2022/03/31 07:53:33;;;;;;;48.67;25.02;;;6.20;99.90;;;;;;5021400;28;21495;-73
2022/03/31 07:56:02;;;;;;;;;;;6.20;99.90;;;;;;5027664;28;20026;-70
2022/03/31 07:58:29;;;;;;;47.80;23.77;;;6.20;99.90;;;;;;5021345;28;19921;-70
2022/03/31 08:00:58;;;;;;;50.90;23.98;;;6.20;99.90;;;;;;5022023;28;20032;-71
2022/03/31 08:03:24;;;;;;;43.30;23.80;;;6.20;99.90;;;;;;5018446;28;20044;-71
2022/03/31 08:05:50;;;;;;;56.85;25.42;;;6.30;99.90;;;;;;5024800;28;20025;-70
2022/03/31 08:08:16;;;;;;;44.40;21.83;;;6.40;99.90;;;;;;5022193;28;20104;-70
2022/03/31 08:10:41;;;;;;;46.40;23.58;;;6.50;99.90;;;;;;5021115;28;20109;-71
2022/03/31 08:13:08;;;;;;;50.60;24.27;;;6.50;99.90;;;;;;5017665;28;20441;-70
2022/03/31 08:15:34;;;;;;;48.50;24.88;;;6.60;99.90;;;;;;5025634;28;20033;-71
2022/03/31 08:18:01;;;;;;;42.47;22.85;;;6.60;99.90;;;;;;5025434;28;20022;-72
2022/03/31 08:20:26;;;;;;;45.30;23.52;;;6.70;99.90;;;;;;5020854;28;20022;-71
2022/03/31 08:22:52;;;;;;;43.42;22.17;;;6.80;99.90;;;;;;5018549;28;20034;-72
2022/03/31 08:25:18;;;;;;;52.50;24.90;;;6.90;99.90;;;;;;5020555;28;20032;-73
2022/03/31 08:27:45;;;;;;;50.78;24.30;;;6.90;99.90;;;;;;5019611;28;20032;-72
2022/03/31 08:30:18;;;;;;;44.28;22.52;;;7.00;99.90;;;;;;5019298;28;20056;-71
2022/03/31 08:32:46;;;;;;;42.35;21.75;;;7.00;99.90;;;;;;5021454;28;20497;-69
2022/03/31 08:35:13;;;;;;;42.92;23.67;;;7.00;99.90;;;;;;5018392;28;20021;-68
2022/03/31 08:37:40;;;;;;;52.80;22.52;;;7.10;99.90;;;;;;5021362;28;20169;-70
2022/03/31 08:40:07;;;;;;;39.80;22.23;;;7.10;99.90;;;;;;5028968;28;20017;-69
2022/03/31 08:42:34;;;;;;;49.15;22.17;;;7.20;99.90;;;;;;5017281;28;20108;-70
2022/03/31 08:45:00;;;;;;;42.53;22.83;;;7.20;99.90;;;;;;5024097;28;20029;-70
2022/03/31 08:47:27;;;;;;;43.22;22.98;;;7.20;99.90;;;;;;5019562;28;20033;-70
2022/03/31 08:49:57;;;;;;;40.85;20.00;;;7.10;99.90;;;;;;5021170;28;20033;-69
2022/03/31 08:52:24;;;;;;;41.88;20.48;;;7.10;99.90;;;;;;5022338;28;20037;-70
2022/03/31 08:54:50;;;;;;;40.03;19.88;;;7.10;99.90;;;;;;5024195;28;20025;-69
2022/03/31 08:57:17;;;;;;;43.60;21.73;;;7.10;99.90;;;;;;5026479;28;20032;-70
2022/03/31 08:59:42;;;;;;;41.83;21.05;;;7.10;99.90;;;;;;5025060;28;20098;-70
2022/03/31 09:02:20;;;;;;;39.85;21.35;;;7.10;99.90;;;;;;5023543;28;20163;-69
2022/03/31 09:04:46;;;;;;;44.22;22.08;;;7.20;99.90;;;;;;5022392;28;20033;-71
2022/03/31 09:07:11;;;;;;;42.70;21.35;;;7.30;99.90;;;;;;5026194;28;20033;-68
2022/03/31 09:09:47;;;;;;;40.25;21.38;;;7.40;99.90;;;;;;5022811;28;20064;-70
2022/03/31 09:12:13;;;;;;;41.50;21.02;;;7.40;99.90;;;;;;5025273;28;20033;-70
2022/03/31 09:14:39;;;;;;;39.92;19.98;;;7.50;99.90;;;;;;5019996;28;20030;-70
2022/03/31 09:17:12;;;;;;;43.25;21.83;;;7.50;99.90;;;;;;5026233;28;20383;-70
2022/03/31 09:19:38;;;;;;;48.05;23.55;;;7.50;99.90;;;;;;5024938;28;20355;-69
2022/03/31 09:22:05;;;;;;;44.70;22.92;;;7.50;99.90;;;;;;5022126;28;20029;-69
2022/03/31 09:24:31;;;;;;;45.90;24.05;;;7.60;99.90;;;;;;5018044;28;20017;-69
2022/03/31 09:26:59;;;;;;;47.00;23.25;;;7.50;99.90;;;;;;5026839;28;20083;-69
2022/03/31 09:29:30;;;;;;;51.95;26.20;;;7.60;99.90;;;;;;5020194;28;20451;-69
2022/03/31 09:32:10;;;;;;;44.80;25.65;;;7.70;99.90;;;;;;5024198;28;20091;-69
2022/03/31 09:34:45;;;;;;;49.35;24.08;;;7.80;99.90;;;;;;5019390;28;20501;-68
2022/03/31 09:37:12;;;;;;;46.72;22.73;;;7.90;99.90;;;;;;5020949;28;20034;-69
2022/03/31 09:39:39;;;;;;;40.42;22.70;;;8.10;99.90;;;;;;5021044;28;20124;-68
2022/03/31 09:42:14;;;;;;;46.38;23.88;;;8.20;99.90;;;;;;5019979;28;20032;-69
2022/03/31 09:44:42;;;;;;;44.40;23.27;;;8.50;99.90;;;;;;5021025;28;20017;-69
2022/03/31 09:47:09;;;;;;;40.50;23.13;;;8.50;99.90;;;;;;5017679;28;20025;-69
2022/03/31 09:49:35;;;;;;;43.47;23.38;;;8.70;99.90;;;;;;5021910;28;20021;-69
2022/03/31 09:52:04;;;;;;;36.40;21.65;;;8.80;99.90;;;;;;5021969;28;20059;-70
2022/03/31 09:54:32;;;;;;;36.70;20.92;;;9.00;99.90;;;;;;5034362;28;20076;-70
2022/03/31 09:57:00;;;;;;;39.95;23.42;;;9.20;99.90;;;;;;5020255;28;20034;-69
2022/03/31 09:59:40;;;;;;;40.13;22.63;;;9.20;99.90;;;;;;5020501;28;20033;-70
2022/03/31 10:02:06;;;;;;;40.17;21.00;;;9.30;99.90;;;;;;5021679;28;20065;-70
2022/03/31 10:04:34;;;;;;;35.45;20.40;;;9.50;99.90;;;;;;5019475;28;20018;-70
2022/03/31 10:07:00;;;;;;;33.30;19.13;;;9.60;99.90;;;;;;5020049;28;20014;-69
2022/03/31 10:09:26;;;;;;;35.90;19.70;;;9.60;99.90;;;;;;5021800;28;20096;-69
2022/03/31 10:12:21;;;;;;;36.08;19.70;;;9.70;99.90;;;;;;5021201;28;20029;-69
2022/03/31 10:15:01;;;;;;;35.08;18.30;;;9.60;99.90;;;;;;5024705;28;20095;-69
2022/03/31 10:17:28;;;;;;;30.65;17.58;;;9.90;99.90;;;;;;5020447;28;20065;-69
2022/03/31 10:20:05;;;;;;;33.65;19.40;;;9.90;99.90;;;;;;5018879;28;20029;-70
2022/03/31 10:25:15;;;;;;;;;;;10.10;99.90;;;;;;5025304;28;20029;-71
2022/03/31 10:27:45;;;;;;;32.10;17.70;;;10.20;99.90;;;;;;5020640;28;19956;-69
2022/03/31 10:30:25;;;;;;;32.75;18.75;;;10.20;99.90;;;;;;5018452;28;20030;-69
2022/03/31 10:33:01;;;;;;;31.00;18.00;;;10.20;99.90;;;;;;5020512;28;20105;-70
2022/03/31 10:35:28;;;;;;;34.75;19.27;;;10.30;99.90;;;;;;5021519;28;20030;-70
2022/03/31 10:37:55;;;;;;;29.98;18.35;;;10.30;99.90;;;;;;5022708;28;20101;-70
2022/03/31 10:40:35;;;;;;;35.75;18.70;;;10.30;99.90;;;;;;5021742;28;20124;-68
2022/03/31 10:43:02;;;;;;;31.05;17.33;;;10.20;99.90;;;;;;5021905;28;20068;-70
2022/03/31 10:45:39;;;;;;;30.20;18.45;;;10.20;99.90;;;;;;5026131;28;20022;-70
2022/03/31 10:48:19;;;;;;;33.40;17.58;;;10.10;99.90;;;;;;5021143;28;20030;-70
2022/03/31 10:50:47;;;;;;;30.08;17.10;;;10.00;99.90;;;;;;5020453;28;20021;-71
2022/03/31 10:53:13;;;;;;;32.05;16.55;;;10.00;99.90;;;;;;5018011;28;20073;-69
2022/03/31 10:55:42;;;;;;;30.73;17.60;;;9.90;99.90;;;;;;5019023;28;20096;-69
2022/03/31 10:58:25;;;;;;;31.50;17.17;;;9.90;99.90;;;;;;5021246;28;20127;-70
2022/03/31 11:01:00;;;;;;;34.60;17.65;;;9.90;99.90;;;;;;5026787;28;20025;-70
2022/03/31 11:03:26;;;;;;;33.50;19.35;;;9.80;99.90;;;;;;5017746;28;20041;-70
2022/03/31 11:05:53;;;;;;;32.33;16.98;;;9.80;99.90;;;;;;5019548;28;20030;-68
2022/03/31 11:08:19;;;;;;;26.25;16.27;;;9.80;99.90;;;;;;5026801;28;20030;-69
2022/03/31 11:10:49;;;;;;;27.95;16.65;;;10.00;99.90;;;;;;5026001;28;20029;-68
2022/03/31 11:13:16;;;;;;;29.00;17.33;;;10.10;99.90;;;;;;5024969;28;20099;-69
2022/03/31 11:15:46;;;;;;;29.40;17.60;;;10.20;99.90;;;;;;5029269;28;20036;-68
2022/03/31 11:18:12;;;;;;;28.92;16.65;;;10.20;99.90;;;;;;5027990;28;20098;-69
2022/03/31 11:20:38;;;;;;;33.40;17.55;;;10.30;99.90;;;;;;5025651;28;20072;-68
2022/03/31 11:23:08;;;;;;;27.98;17.27;;;10.30;99.90;;;;;;5027056;28;20351;-69
2022/03/31 11:25:35;;;;;;;30.27;17.48;;;10.10;99.90;;;;;;5025057;28;20033;-70
2022/03/31 11:28:12;;;;;;;31.25;17.00;;;10.10;99.90;;;;;;5026816;28;20049;-69
2022/03/31 11:30:40;;;;;;;28.20;17.15;;;10.10;99.90;;;;;;5023992;28;20048;-71
2022/03/31 11:33:09;;;;;;;31.02;17.38;;;10.20;99.90;;;;;;5026602;28;20057;-72
2022/03/31 11:35:35;;;;;;;29.70;17.65;;;10.30;99.90;;;;;;5008164;23;20404;-79
2022/03/31 11:38:04;;;;;;;31.20;17.77;;;10.50;99.90;;;;;;4964711;28;20034;-80
2022/03/31 11:40:31;;;;;;;31.05;18.02;;;10.50;99.90;;;;;;4968515;28;20034;-81
2022/03/31 11:43:00;;;;;;;28.80;16.02;;;10.50;99.90;;;;;;4967481;28;20039;-80
2022/03/31 11:45:33;;;;;;;29.40;16.30;;;10.40;99.90;;;;;;4975239;28;20046;-78
2022/03/31 11:48:04;;;;;;;29.75;16.55;;;10.30;99.90;;;;;;4972406;28;20117;-80
2022/03/31 11:50:31;;;;;;;26.75;14.75;;;10.40;99.90;;;;;;4972858;28;20031;-80
2022/03/31 11:52:57;;;;;;;28.75;17.25;;;10.40;99.90;;;;;;4970356;28;20062;-80
2022/03/31 11:55:23;;;;;;;34.78;17.77;;;10.30;99.90;;;;;;4968552;28;20031;-79
2022/03/31 11:57:57;;;;;;;31.55;17.83;;;10.40;99.90;;;;;;4972604;28;20031;-78
2022/03/31 12:00:24;;;;;;;;;;;10.50;99.90;;;;;;4973354;28;20077;-78
2022/03/31 12:02:55;;;;;;;31.10;17.23;;;10.60;99.90;;;;;;4969793;28;19914;-78
2022/03/31 12:05:21;;;;;;;31.42;17.65;;;10.80;99.90;;;;;;4967053;28;20053;-79
2022/03/31 12:07:48;;;;;;;31.98;18.38;;;10.80;99.90;;;;;;4970486;28;20491;-78
2022/03/31 12:10:14;;;;;;;29.65;18.02;;;10.80;99.90;;;;;;4968680;28;20094;-79
2022/03/31 12:12:51;;;;;;;30.98;17.58;;;10.90;99.90;;;;;;4966989;28;20077;-80
2022/03/31 12:15:25;;;;;;;32.92;17.42;;;11.00;99.90;;;;;;4969135;28;20574;-80
2022/03/31 12:17:58;;;;;;;;;;;11.00;99.90;;;;;;4972168;28;20495;-80
2022/03/31 12:20:24;;;;;;;29.85;15.40;;;11.00;99.90;;;;;;4973965;28;20286;-80
2022/03/31 12:22:51;;;;;;;31.85;17.73;;;11.00;99.90;;;;;;4969481;28;20026;-80
2022/03/31 12:25:35;;;;;;;29.02;17.08;;;11.00;99.90;;;;;;4966421;28;20113;-80
2022/03/31 12:28:07;;;;;;;31.25;16.17;;;11.10;99.90;;;;;;4964920;28;20088;-79
2022/03/31 12:30:50;;;;;;;30.25;15.15;;;10.90;99.90;;;;;;4969977;28;20480;-80
2022/03/31 12:33:30;;;;;;;29.48;16.05;;;10.90;99.90;;;;;;4965207;28;20030;-78
2022/03/31 12:36:03;;;;;;;27.23;14.65;;;10.90;99.90;;;;;;4971885;28;20077;-79
2022/03/31 12:38:44;;;;;;;25.35;14.68;;;11.10;99.90;;;;;;4968970;28;20121;-78
2022/03/31 12:41:22;;;;;;;31.92;15.15;;;11.00;99.90;;;;;;4968761;28;20030;-79
2022/03/31 12:44:01;;;;;;;26.95;15.20;;;10.90;99.90;;;;;;4971721;28;20106;-80